Terminal Aerodrome Forecast
Issued by NWS

Home | Current Version | Previous Version | Text Only | Print | Product List | Glossary On
Versions: 1 2 3 4 5 6 7 8 9 10 11 12 13 14 15 16 17 18 19
000
FTUS46 KSGX 250749 CCA
TAFCRQ
TAF COR
KCRQ 250749Z 2508/2606 VRB04KT P6SM BKN015
      TEMPO 2508/2510 SCT015
     FM251700 VRB05KT P6SM BKN015
     FM252000 25010KT P6SM SCT020
     FM260200 VRB04KT P6SM BKN010=

USA.gov is the U.S. government's official web portal to all federal, state and local government web resources and services.